Leola, Arkansas
Current Conditions -  °F | °C
As of 1:56 PM on Thursday 29 Jan 2015 (Local Time) from KADF Reporting Station
Clear Clear  
Wind Chill: 65°   Ceiling: Unl
Heat Index: 65°   Visibility: 10mi
Dew Point: 40°   Wind: 12mph
Humidity: 40%   Direction: 320°NW
Pressure: 30.19"   Gusts: NA
Location:  34.17°N, 92.59°W
Report Text: KADF 291956Z AUTO 32010KT 10SM CLR 18/04 A3019 RMK AO2 T01830044 SLP236
Loading
Personal Weather Stations






























Interactive Weather Map New forecast layout! Learn more

10-Day Weather Forecast

Advertisements
Track Severe Weather on mobile